Time;durP1;ratioP1;P1;durP2;ratioP2;P2;SDS_P1;SDS_P2;PMS_P1;PMS_P2;Temp;Humidity;BMP_temperature;BMP_pressure;BME280_temperature;BME280_humidity;BME280_pressure;Samples;Min_cycle;Max_cycle;Signal;HPM_P1;HPM_P2
2021/12/13 00:01:40;;;;;;;11.60;8.30;;;;;;;;;;4462514;32;20439;-56
2021/12/13 00:04:11;;;;;;;11.73;7.57;;;;;;;;;;4464986;32;20212;-56
2021/12/13 00:07:03;;;;;;;13.57;8.30;;;;;;;;;;4464307;32;20258;-57
2021/12/13 00:09:40;;;;;;;5.97;4.30;;;;;;;;;;4464539;32;20264;-56
2021/12/13 00:12:07;;;;;;;4.30;3.73;;;;;;;;;;4462972;32;20247;-56
2021/12/13 00:14:37;;;;;;;9.80;4.60;;;;;;;;;;4463250;32;20319;-58
2021/12/13 00:17:15;;;;;;;2.97;2.67;;;;;;;;;;4464061;32;20303;-57
2021/12/13 00:19:48;;;;;;;4.20;3.43;;;;;;;;;;4464425;32;20268;-57
2021/12/13 00:22:21;;;;;;;3.87;3.50;;;;;;;;;;4464139;32;20736;-57
2021/12/13 00:24:49;;;;;;;3.90;3.30;;;;;;;;;;4464545;32;20268;-56
2021/12/13 00:27:21;;;;;;;4.23;3.33;;;;;;;;;;4463820;32;20428;-57
2021/12/13 00:30:06;;;;;;;3.87;2.93;;;;;;;;;;4463631;32;20247;-57
2021/12/13 00:32:56;;;;;;;4.90;3.30;;;;;;;;;;4464421;32;20664;-57
2021/12/13 00:35:25;;;;;;;4.00;2.93;;;;;;;;;;4464340;32;20228;-58
2021/12/13 00:38:00;;;;;;;5.20;3.87;;;;;;;;;;4465274;32;20258;-59
2021/12/13 00:40:41;;;;;;;4.23;3.37;;;;;;;;;;4464513;32;20635;-55
2021/12/13 00:43:35;;;;;;;5.03;3.90;;;;;;;;;;4463694;32;20263;-56
2021/12/13 00:46:07;;;;;;;5.10;3.47;;;;;;;;;;4462317;32;20272;-57
2021/12/13 00:48:35;;;;;;;4.10;3.57;;;;;;;;;;4464446;32;20287;-57
2021/12/13 00:51:08;;;;;;;3.30;3.00;;;;;;;;;;4463877;32;20362;-57
2021/12/13 00:53:37;;;;;;;4.60;3.67;;;;;;;;;;4464149;32;20196;-58
2021/12/13 00:56:41;;;;;;;4.20;3.80;;;;;;;;;;4463598;32;20231;-59
2021/12/13 00:59:07;;;;;;;5.47;3.90;;;;;;;;;;4463670;32;20250;-57
2021/12/13 01:01:34;;;;;;;4.47;3.80;;;;;;;;;;4463565;32;20369;-57
2021/12/13 01:04:05;;;;;;;9.50;6.50;;;;;;;;;;4463457;32;20236;-57
2021/12/13 01:07:08;;;;;;;11.27;6.03;;;;;;;;;;4463749;32;20247;-57
2021/12/13 01:10:11;;;;;;;4.33;3.77;;;;;;;;;;4463657;32;20263;-57
2021/12/13 01:12:37;;;;;;;2.90;2.67;;;;;;;;;;4463684;32;20228;-57
2021/12/13 01:15:10;;;;;;;4.83;2.90;;;;;;;;;;4463521;32;20640;-57
2021/12/13 01:18:03;;;;;;;3.43;2.87;;;;;;;;;;4454019;32;20259;-57
2021/12/13 01:20:56;;;;;;;4.40;3.00;;;;;;;;;;4447701;32;20239;-58
2021/12/13 01:23:38;;;;;;;4.13;2.77;;;;;;;;;;4447228;32;20593;-58
2021/12/13 01:28:46;;;;;;;3.37;3.07;;;;;;;;;;4462463;32;20203;-57
2021/12/13 01:31:26;;;;;;;3.13;2.60;;;;;;;;;;4462322;32;20254;-57
2021/12/13 01:33:54;;;;;;;3.47;2.77;;;;;;;;;;4463019;32;20201;-58
2021/12/13 01:36:27;;;;;;;4.23;2.70;;;;;;;;;;4461912;32;20641;-57
2021/12/13 01:38:56;;;;;;;2.30;2.10;;;;;;;;;;4462891;32;20666;-57
2021/12/13 01:41:45;;;;;;;3.67;2.63;;;;;;;;;;4463322;32;20580;-57
2021/12/13 01:44:33;;;;;;;2.03;1.83;;;;;;;;;;4463141;32;20220;-58
2021/12/13 01:47:09;;;;;;;11.20;5.13;;;;;;;;;;4461599;32;20263;-57
2021/12/13 01:49:40;;;;;;;10.10;6.40;;;;;;;;;;4463382;32;20642;-57
2021/12/13 01:52:17;;;;;;;13.70;6.27;;;;;;;;;;4462773;32;20271;-57
2021/12/13 01:54:43;;;;;;;12.50;6.37;;;;;;;;;;4463213;32;20332;-57
2021/12/13 01:57:22;;;;;;;6.33;4.70;;;;;;;;;;4462836;32;20315;-57
2021/12/13 02:00:07;;;;;;;3.83;3.10;;;;;;;;;;4463114;32;20203;-57
2021/12/13 02:02:37;;;;;;;3.07;2.77;;;;;;;;;;4462941;32;20357;-57
2021/12/13 02:05:07;;;;;;;4.03;2.97;;;;;;;;;;4462652;32;20297;-56
2021/12/13 02:08:06;;;;;;;3.87;2.83;;;;;;;;;;4461576;32;20342;-57
2021/12/13 02:10:48;;;;;;;;;;;;;;;;;;;;;
2021/12/13 02:14:03;;;;;;;4.43;3.40;;;;;;;;;;4463671;32;43560;-59
2021/12/13 02:19:26;;;;;;;3.87;3.20;;;;;;;;;;4462797;32;20280;-57
2021/12/13 02:22:05;;;;;;;4.60;3.60;;;;;;;;;;4460930;32;23754;-56
2021/12/13 02:24:31;;;;;;;4.13;3.73;;;;;;;;;;4461775;32;20236;-57
2021/12/13 02:26:58;;;;;;;5.60;4.13;;;;;;;;;;4461496;32;20239;-57
2021/12/13 02:29:34;;;;;;;8.00;5.37;;;;;;;;;;4461509;32;20299;-57
2021/12/13 02:32:01;;;;;;;5.23;3.60;;;;;;;;;;4462529;32;20192;-56
2021/12/13 02:34:29;;;;;;;8.43;5.67;;;;;;;;;;4459499;32;20550;-56
2021/12/13 02:36:55;;;;;;;8.60;5.30;;;;;;;;;;4449646;32;20212;-57
2021/12/13 02:39:25;;;;;;;9.47;6.10;;;;;;;;;;4449893;32;20579;-56
2021/12/13 02:41:51;;;;;;;9.60;6.10;;;;;;;;;;4449544;32;20196;-58
2021/12/13 02:44:27;;;;;;;8.43;4.93;;;;;;;;;;4448658;32;20615;-56
2021/12/13 02:46:59;;;;;;;10.90;5.27;;;;;;;;;;4449702;32;20367;-56
2021/12/13 02:49:25;;;;;;;7.73;4.83;;;;;;;;;;4449994;32;20213;-56
2021/12/13 02:51:58;;;;;;;9.27;6.27;;;;;;;;;;4449350;32;20255;-57
2021/12/13 02:54:31;;;;;;;8.53;4.30;;;;;;;;;;4449609;32;20275;-57
2021/12/13 02:56:56;;;;;;;4.47;3.70;;;;;;;;;;4448242;32;20285;-57
2021/12/13 02:59:24;;;;;;;5.83;3.80;;;;;;;;;;4449334;32;20664;-56
2021/12/13 03:01:56;;;;;;;4.83;3.80;;;;;;;;;;4449378;32;20300;-57
2021/12/13 03:04:24;;;;;;;6.30;2.83;;;;;;;;;;4449481;32;20262;-56
2021/12/13 03:06:55;;;;;;;5.80;4.27;;;;;;;;;;4447725;32;20224;-56
2021/12/13 03:09:24;;;;;;;4.30;3.47;;;;;;;;;;4449489;32;20236;-57
2021/12/13 03:11:52;;;;;;;3.70;3.40;;;;;;;;;;4447844;32;20255;-56
2021/12/13 03:14:17;;;;;;;7.77;4.67;;;;;;;;;;4449439;32;20258;-56
2021/12/13 03:16:57;;;;;;;9.43;6.73;;;;;;;;;;4451048;32;20212;-57
2021/12/13 03:19:31;;;;;;;19.87;13.33;;;;;;;;;;4464073;32;20318;-57
2021/12/13 03:22:33;;;;;;;17.00;11.23;;;;;;;;;;4464492;32;20232;-57
2021/12/13 03:25:12;;;;;;;10.53;7.07;;;;;;;;;;4464100;32;20235;-56
2021/12/13 03:28:15;;;;;;;6.63;5.03;;;;;;;;;;4464465;32;20236;-57
2021/12/13 03:30:48;;;;;;;2.87;2.63;;;;;;;;;;4464150;32;20324;-57
2021/12/13 03:33:15;;;;;;;3.40;2.73;;;;;;;;;;4464181;32;20318;-56
2021/12/13 03:35:43;;;;;;;3.43;2.80;;;;;;;;;;4464257;32;20216;-56
2021/12/13 03:38:13;;;;;;;6.37;2.97;;;;;;;;;;4463104;32;20270;-57
2021/12/13 03:40:40;;;;;;;4.93;3.53;;;;;;;;;;4464411;32;20313;-57
2021/12/13 03:43:10;;;;;;;5.00;3.10;;;;;;;;;;4463917;32;20667;-56
2021/12/13 03:45:42;;;;;;;4.53;4.07;;;;;;;;;;4462408;32;20656;-58
2021/12/13 03:48:12;;;;;;;3.80;2.93;;;;;;;;;;4463978;32;20643;-57
2021/12/13 03:50:42;;;;;;;5.27;3.37;;;;;;;;;;4464186;32;20235;-56
2021/12/13 03:53:12;;;;;;;3.67;2.97;;;;;;;;;;4462190;32;20266;-58
2021/12/13 03:55:39;;;;;;;3.33;3.03;;;;;;;;;;4463729;32;20240;-57
2021/12/13 03:58:08;;;;;;;3.87;3.27;;;;;;;;;;4463660;32;20640;-58
2021/12/13 04:00:41;;;;;;;4.90;3.00;;;;;;;;;;4462884;32;20686;-57
2021/12/13 04:03:10;;;;;;;4.17;2.97;;;;;;;;;;4463510;32;20576;-57
2021/12/13 04:05:36;;;;;;;19.67;8.40;;;;;;;;;;4463132;32;20201;-57
2021/12/13 04:08:06;;;;;;;13.00;7.70;;;;;;;;;;4463424;32;20216;-57
2021/12/13 04:10:41;;;;;;;21.10;8.73;;;;;;;;;;4464021;32;20231;-58
2021/12/13 04:13:13;;;;;;;6.93;5.13;;;;;;;;;;4462298;32;20239;-57
2021/12/13 04:16:15;;;;;;;7.20;5.00;;;;;;;;;;4463598;32;20230;-57
2021/12/13 04:21:27;;;;;;;6.33;4.30;;;;;;;;;;4463417;32;20215;-57
2021/12/13 04:23:57;;;;;;;7.10;4.80;;;;;;;;;;4463277;32;20322;-57
2021/12/13 04:26:25;;;;;;;4.70;4.07;;;;;;;;;;4462745;32;20331;-56
2021/12/13 04:28:55;;;;;;;5.23;3.80;;;;;;;;;;4462353;32;20274;-56
2021/12/13 04:31:27;;;;;;;4.00;3.37;;;;;;;;;;4448032;32;20216;-57
2021/12/13 04:33:56;;;;;;;3.83;3.20;;;;;;;;;;4448507;32;20330;-57
2021/12/13 04:36:37;;;;;;;3.63;3.17;;;;;;;;;;4463415;32;20222;-57
2021/12/13 04:39:06;;;;;;;5.50;3.77;;;;;;;;;;4463352;32;20290;-56
2021/12/13 04:41:42;;;;;;;3.53;3.07;;;;;;;;;;4463319;32;20313;-56
2021/12/13 04:44:12;;;;;;;4.03;3.00;;;;;;;;;;4462808;32;20293;-57
2021/12/13 04:46:40;;;;;;;3.10;2.70;;;;;;;;;;4463541;32;20303;-57
2021/12/13 04:49:13;;;;;;;4.87;3.63;;;;;;;;;;4463243;32;20250;-57
2021/12/13 04:51:46;;;;;;;22.43;10.87;;;;;;;;;;4462999;32;20196;-58
2021/12/13 04:54:15;;;;;;;18.87;11.63;;;;;;;;;;4462543;32;20291;-57
2021/12/13 04:56:42;;;;;;;23.80;11.90;;;;;;;;;;4463025;32;20204;-58
2021/12/13 04:59:10;;;;;;;33.47;17.37;;;;;;;;;;4461362;32;20642;-57
2021/12/13 05:01:36;;;;;;;35.23;18.27;;;;;;;;;;4463150;32;20221;-57
2021/12/13 05:04:05;;;;;;;47.20;22.67;;;;;;;;;;4463179;32;20570;-57
2021/12/13 05:06:34;;;;;;;47.20;22.97;;;;;;;;;;4461598;32;20196;-57
2021/12/13 05:09:05;;;;;;;46.73;23.00;;;;;;;;;;4462906;32;20224;-57
2021/12/13 05:11:35;;;;;;;28.37;15.87;;;;;;;;;;4462832;32;20765;-58
2021/12/13 05:14:04;;;;;;;19.47;11.10;;;;;;;;;;4462793;32;20223;-56
2021/12/13 05:16:54;;;;;;;12.90;8.60;;;;;;;;;;4462942;32;20239;-57
2021/12/13 05:19:35;;;;;;;14.13;8.97;;;;;;;;;;4462816;32;20645;-57
2021/12/13 05:22:03;;;;;;;12.03;8.13;;;;;;;;;;4462952;32;20192;-57
2021/12/13 05:24:31;;;;;;;13.77;9.57;;;;;;;;;;4463048;32;20664;-57
2021/12/13 05:27:01;;;;;;;13.53;9.57;;;;;;;;;;4461273;32;20562;-57
2021/12/13 05:29:45;;;;;;;15.77;10.03;;;;;;;;;;4462487;32;20224;-56
2021/12/13 05:32:16;;;;;;;20.53;10.73;;;;;;;;;;4462651;32;20235;-58
2021/12/13 05:35:08;;;;;;;12.87;8.53;;;;;;;;;;4462174;32;20388;-57
2021/12/13 05:37:40;;;;;;;20.47;11.30;;;;;;;;;;4462382;32;20564;-58
2021/12/13 05:40:12;;;;;;;32.47;16.37;;;;;;;;;;4462545;32;20523;-57
2021/12/13 05:43:01;;;;;;;20.67;13.30;;;;;;;;;;4462461;32;20244;-55
2021/12/13 05:45:40;;;;;;;27.47;14.63;;;;;;;;;;4462870;32;20208;-55
2021/12/13 05:48:10;;;;;;;28.73;15.43;;;;;;;;;;4462257;32;20236;-57
2021/12/13 05:50:44;;;;;;;32.83;17.50;;;;;;;;;;4462659;32;20248;-56
2021/12/13 05:53:16;;;;;;;38.57;20.93;;;;;;;;;;4462258;32;20228;-57
2021/12/13 05:55:53;;;;;;;43.97;22.60;;;;;;;;;;4461611;32;20584;-56
2021/12/13 05:58:39;;;;;;;40.10;20.13;;;;;;;;;;4462260;32;20250;-56
2021/12/13 06:01:12;;;;;;;35.90;18.23;;;;;;;;;;4462445;32;20362;-57
2021/12/13 06:03:42;;;;;;;25.60;15.30;;;;;;;;;;4462272;32;20701;-56
2021/12/13 06:06:14;;;;;;;27.60;15.73;;;;;;;;;;4462305;32;20208;-57
2021/12/13 06:08:52;;;;;;;33.97;18.40;;;;;;;;;;4462118;32;20216;-57
2021/12/13 06:11:33;;;;;;;23.87;16.67;;;;;;;;;;4465749;32;20220;-55
2021/12/13 06:14:06;;;;;;;27.10;14.03;;;;;;;;;;4465175;32;20292;-56
2021/12/13 06:16:53;;;;;;;16.40;11.63;;;;;;;;;;4465780;32;20226;-55
2021/12/13 06:19:35;;;;;;;28.27;16.83;;;;;;;;;;4463935;32;20596;-55
2021/12/13 06:22:12;;;;;;;37.60;22.37;;;;;;;;;;4465113;32;20230;-55
2021/12/13 06:24:39;;;;;;;27.40;18.07;;;;;;;;;;4465050;32;20248;-57
2021/12/13 06:27:13;;;;;;;27.73;18.20;;;;;;;;;;4465668;32;20518;-56
2021/12/13 06:29:53;;;;;;;35.20;19.93;;;;;;;;;;4465059;32;20270;-56
2021/12/13 06:32:25;;;;;;;40.77;24.60;;;;;;;;;;4464793;32;20229;-56
2021/12/13 06:34:51;;;;;;;47.30;26.30;;;;;;;;;;4464983;32;20617;-57
2021/12/13 06:37:27;;;;;;;54.77;30.70;;;;;;;;;;4465103;32;20365;-56
2021/12/13 06:40:26;;;;;;;56.83;32.37;;;;;;;;;;4462685;32;20331;-56
2021/12/13 06:42:53;;;;;;;53.53;28.67;;;;;;;;;;4465288;32;20204;-56
2021/12/13 06:45:23;;;;;;;58.17;30.43;;;;;;;;;;4465142;32;20332;-56
2021/12/13 06:47:51;;;;;;;50.00;28.83;;;;;;;;;;4465443;32;20242;-57
2021/12/13 06:50:24;;;;;;;52.73;30.10;;;;;;;;;;4465007;32;20673;-56
2021/12/13 06:52:50;;;;;;;53.13;28.80;;;;;;;;;;4465447;32;20235;-56
2021/12/13 06:55:17;;;;;;;52.77;28.97;;;;;;;;;;4464376;32;20416;-55
2021/12/13 06:57:51;;;;;;;45.33;27.10;;;;;;;;;;4464252;32;20591;-56
2021/12/13 07:00:22;;;;;;;44.33;24.23;;;;;;;;;;4464549;32;20550;-56
2021/12/13 07:02:55;;;;;;;44.70;26.17;;;;;;;;;;4462958;32;20251;-56
2021/12/13 07:05:27;;;;;;;44.40;25.17;;;;;;;;;;4464370;32;20275;-56
2021/12/13 07:07:57;;;;;;;47.43;25.47;;;;;;;;;;4464471;32;20275;-58
2021/12/13 07:10:36;;;;;;;53.93;24.53;;;;;;;;;;4465073;32;20297;-55
2021/12/13 07:13:07;;;;;;;53.30;25.20;;;;;;;;;;4464213;32;20212;-56
2021/12/13 07:15:36;;;;;;;62.93;27.57;;;;;;;;;;4465259;32;20279;-56
2021/12/13 07:18:07;;;;;;;56.30;29.43;;;;;;;;;;4464875;32;20236;-56
2021/12/13 07:20:47;;;;;;;52.47;28.67;;;;;;;;;;4463787;32;20741;-56
2021/12/13 07:23:12;;;;;;;55.67;27.93;;;;;;;;;;4464468;32;20299;-56
2021/12/13 07:25:41;;;;;;;37.80;20.17;;;;;;;;;;4464654;32;20405;-56
2021/12/13 07:28:09;;;;;;;37.90;19.37;;;;;;;;;;4464172;32;20254;-55
2021/12/13 07:30:36;;;;;;;35.20;15.87;;;;;;;;;;4463031;32;20216;-56
2021/12/13 07:33:09;;;;;;;40.23;19.07;;;;;;;;;;4462846;32;20256;-56
2021/12/13 07:35:42;;;;;;;44.40;21.43;;;;;;;;;;4451844;32;20287;-57
2021/12/13 07:38:10;;;;;;;41.47;23.10;;;;;;;;;;4445719;32;20662;-57
2021/12/13 07:40:46;;;;;;;46.03;24.50;;;;;;;;;;4446367;32;20711;-56
2021/12/13 07:43:32;;;;;;;52.90;27.17;;;;;;;;;;4444387;32;20262;-57
2021/12/13 07:46:06;;;;;;;66.43;33.27;;;;;;;;;;4445780;32;20208;-57
2021/12/13 07:48:40;;;;;;;61.60;31.67;;;;;;;;;;4445646;32;20260;-56
2021/12/13 07:51:11;;;;;;;87.90;28.23;;;;;;;;;;4444692;32;20314;-57
2021/12/13 07:53:42;;;;;;;59.93;31.10;;;;;;;;;;4445268;32;20253;-57
2021/12/13 07:56:11;;;;;;;58.30;31.30;;;;;;;;;;4446307;32;20240;-55
2021/12/13 07:58:39;;;;;;;74.00;36.83;;;;;;;;;;4448550;32;20604;-54
2021/12/13 08:01:18;;;;;;;66.47;36.40;;;;;;;;;;4445865;32;20307;-55
2021/12/13 08:03:51;;;;;;;66.30;32.33;;;;;;;;;;4447476;32;20258;-56
2021/12/13 08:06:16;;;;;;;64.50;34.27;;;;;;;;;;4445934;32;20316;-55
2021/12/13 08:08:51;;;;;;;46.50;28.87;;;;;;;;;;4448035;32;20310;-57
2021/12/13 08:11:34;;;;;;;39.13;22.97;;;;;;;;;;4447904;32;20192;-56
2021/12/13 08:13:59;;;;;;;28.60;18.47;;;;;;;;;;4446781;32;20657;-56
2021/12/13 08:16:31;;;;;;;31.20;15.53;;;;;;;;;;4447924;32;20299;-55
2021/12/13 08:19:08;;;;;;;27.80;15.60;;;;;;;;;;4447477;32;20353;-56
2021/12/13 08:21:39;;;;;;;21.00;13.50;;;;;;;;;;4446207;32;20337;-57
2021/12/13 08:24:05;;;;;;;33.77;17.67;;;;;;;;;;4447225;32;20248;-56
2021/12/13 08:26:39;;;;;;;32.43;18.80;;;;;;;;;;4447622;32;20196;-57
2021/12/13 08:29:11;;;;;;;38.70;22.30;;;;;;;;;;4447774;32;20229;-56
2021/12/13 08:31:39;;;;;;;40.37;21.53;;;;;;;;;;4463085;32;20234;-55
2021/12/13 08:34:13;;;;;;;47.63;25.23;;;;;;;;;;4462951;32;20236;-55
2021/12/13 08:36:46;;;;;;;39.47;20.27;;;;;;;;;;4463598;32;20191;-56
2021/12/13 08:39:25;;;;;;;33.90;17.70;;;;;;;;;;4463563;32;20688;-56
2021/12/13 08:42:21;;;;;;;35.13;18.60;;;;;;;;;;4461945;32;20224;-56
2021/12/13 08:44:53;;;;;;;35.03;19.60;;;;;;;;;;4458962;32;20568;-56
2021/12/13 08:47:30;;;;;;;28.20;17.83;;;;;;;;;;4462329;32;20208;-56
2021/12/13 08:50:04;;;;;;;40.80;19.10;;;;;;;;;;4462129;32;20723;-57
2021/12/13 08:52:40;;;;;;;39.73;22.83;;;;;;;;;;4463389;32;20322;-55
2021/12/13 08:55:11;;;;;;;51.00;27.47;;;;;;;;;;4463207;32;20247;-57
2021/12/13 08:57:55;;;;;;;45.93;23.87;;;;;;;;;;4463022;32;20205;-57
2021/12/13 09:00:20;;;;;;;43.83;22.97;;;;;;;;;;4463554;32;20188;-55
2021/12/13 09:03:10;;;;;;;53.73;24.80;;;;;;;;;;4462043;32;20263;-57
2021/12/13 09:05:41;;;;;;;56.10;28.30;;;;;;;;;;4463344;32;20204;-57
2021/12/13 09:08:11;;;;;;;54.00;27.60;;;;;;;;;;4463212;32;20224;-56
2021/12/13 09:10:45;;;;;;;48.57;24.20;;;;;;;;;;4463518;32;20247;-56
2021/12/13 09:13:12;;;;;;;32.10;19.43;;;;;;;;;;4463120;32;20270;-56
2021/12/13 09:15:38;;;;;;;41.67;19.53;;;;;;;;;;4463586;32;20267;-56
2021/12/13 09:18:07;;;;;;;41.30;22.03;;;;;;;;;;4463074;32;20220;-57
2021/12/13 09:20:53;;;;;;;43.80;23.60;;;;;;;;;;4463553;32;20268;-56
2021/12/13 09:23:24;;;;;;;54.73;26.53;;;;;;;;;;4461765;32;20236;-56
2021/12/13 09:25:52;;;;;;;71.13;33.67;;;;;;;;;;4463053;32;20267;-56
2021/12/13 09:28:24;;;;;;;55.80;28.10;;;;;;;;;;4463269;32;20384;-57
2021/12/13 09:31:06;;;;;;;65.67;34.43;;;;;;;;;;4460418;32;20239;-57
2021/12/13 09:33:38;;;;;;;71.70;34.77;;;;;;;;;;4462684;32;20243;-56
2021/12/13 09:36:10;;;;;;;65.67;34.60;;;;;;;;;;4448282;32;20255;-56
2021/12/13 09:38:49;;;;;;;75.73;38.97;;;;;;;;;;4447518;32;20403;-55
2021/12/13 09:41:33;;;;;;;52.03;27.60;;;;;;;;;;4447763;32;20239;-55
2021/12/13 09:44:07;;;;;;;69.77;28.73;;;;;;;;;;4448355;32;20534;-56
2021/12/13 09:47:20;;;;;;;72.97;30.63;;;;;;;;;;4451016;32;20188;-56
2021/12/13 09:49:57;;;;;;;65.90;36.70;;;;;;;;;;4415261;32;20315;-57
2021/12/13 09:52:35;;;;;;;87.70;41.43;;;;;;;;;;4455532;32;20286;-55
2021/12/13 09:55:04;;;;;;;64.87;35.00;;;;;;;;;;4466074;32;20502;-55
2021/12/13 09:57:35;;;;;;;63.47;32.67;;;;;;;;;;4466228;32;20232;-57
2021/12/13 10:00:07;;;;;;;75.87;37.73;;;;;;;;;;4465054;32;20232;-55
2021/12/13 10:02:40;;;;;;;73.63;36.57;;;;;;;;;;4464894;32;20840;-57
2021/12/13 10:05:10;;;;;;;71.10;32.77;;;;;;;;;;4460624;32;20664;-56
2021/12/13 10:07:40;;;;;;;38.00;20.63;;;;;;;;;;4464194;32;20251;-57
2021/12/13 10:10:34;;;;;;;38.67;19.50;;;;;;;;;;4464675;32;20641;-56
2021/12/13 10:13:07;;;;;;;44.00;21.33;;;;;;;;;;4458848;32;20300;-56
2021/12/13 10:15:47;;;;;;;41.60;21.73;;;;;;;;;;4466020;32;20335;-56
2021/12/13 10:18:20;;;;;;;42.67;22.07;;;;;;;;;;4465599;32;20762;-56
2021/12/13 10:20:50;;;;;;;36.33;19.83;;;;;;;;;;4465483;32;20319;-56
2021/12/13 10:23:19;;;;;;;32.40;18.17;;;;;;;;;;4464603;32;20215;-57
2021/12/13 10:25:49;;;;;;;36.87;20.17;;;;;;;;;;4465533;32;20567;-56
2021/12/13 10:28:19;;;;;;;43.70;26.03;;;;;;;;;;4465607;32;20586;-57
2021/12/13 10:30:54;;;;;;;29.13;17.27;;;;;;;;;;4466155;32;20230;-56
2021/12/13 10:33:21;;;;;;;45.27;23.77;;;;;;;;;;4465871;32;20222;-55
2021/12/13 10:35:49;;;;;;;43.50;22.77;;;;;;;;;;4465838;32;20320;-56
2021/12/13 10:38:22;;;;;;;46.17;22.80;;;;;;;;;;4465760;32;20290;-56
2021/12/13 10:40:52;;;;;;;47.80;26.47;;;;;;;;;;4464198;32;20252;-57
2021/12/13 10:43:30;;;;;;;50.87;25.90;;;;;;;;;;4465698;32;20304;-56
2021/12/13 10:46:10;;;;;;;50.47;27.90;;;;;;;;;;4465841;32;20207;-56
2021/12/13 10:48:42;;;;;;;38.27;23.30;;;;;;;;;;4465024;32;20258;-56
2021/12/13 10:51:18;;;;;;;54.10;27.50;;;;;;;;;;4463441;32;20216;-56
2021/12/13 10:53:45;;;;;;;51.50;26.53;;;;;;;;;;4465482;32;20212;-56
2021/12/13 10:56:25;;;;;;;47.00;24.97;;;;;;;;;;4464994;32;20557;-55
2021/12/13 10:58:54;;;;;;;53.00;28.30;;;;;;;;;;4464255;32;20261;-55
2021/12/13 11:01:27;;;;;;;61.20;34.20;;;;;;;;;;4465094;32;20256;-57
2021/12/13 11:03:56;;;;;;;44.63;25.20;;;;;;;;;;4464859;32;20317;-55
2021/12/13 11:06:23;;;;;;;35.30;21.93;;;;;;;;;;4464882;32;20200;-55
2021/12/13 11:08:49;;;;;;;54.90;29.03;;;;;;;;;;4465012;32;20251;-55
2021/12/13 11:11:26;;;;;;;44.07;23.57;;;;;;;;;;4465016;32;20263;-56
2021/12/13 11:13:55;;;;;;;31.80;19.97;;;;;;;;;;4463228;32;20231;-56
2021/12/13 11:16:29;;;;;;;23.90;14.93;;;;;;;;;;4465252;32;20272;-55
2021/12/13 11:18:56;;;;;;;15.57;10.53;;;;;;;;;;4464989;32;20227;-55
2021/12/13 11:21:29;;;;;;;18.57;11.57;;;;;;;;;;4463934;32;20295;-55
2021/12/13 11:23:56;;;;;;;27.33;16.70;;;;;;;;;;4465363;32;20220;-56
2021/12/13 11:26:27;;;;;;;34.10;19.67;;;;;;;;;;4465114;32;20239;-55
2021/12/13 11:28:54;;;;;;;48.77;26.20;;;;;;;;;;4464004;32;20375;-56
2021/12/13 11:31:32;;;;;;;34.07;19.40;;;;;;;;;;4465224;32;20325;-56
2021/12/13 11:34:04;;;;;;;31.33;18.13;;;;;;;;;;4462793;32;20261;-56
2021/12/13 11:36:30;;;;;;;34.00;18.23;;;;;;;;;;4447731;32;20267;-55
2021/12/13 11:39:24;;;;;;;40.17;22.10;;;;;;;;;;4449536;32;20272;-56
2021/12/13 11:42:10;;;;;;;34.40;18.63;;;;;;;;;;4449601;32;20205;-56
2021/12/13 11:44:55;;;;;;;29.20;17.17;;;;;;;;;;4416590;32;20244;-55
2021/12/13 11:47:29;;;;;;;23.87;15.30;;;;;;;;;;4449513;32;20220;-56
2021/12/13 11:50:10;;;;;;;31.57;18.13;;;;;;;;;;4456944;32;20295;-54
2021/12/13 11:52:57;;;;;;;40.57;21.70;;;;;;;;;;4464445;32;20196;-56
2021/12/13 11:55:46;;;;;;;44.67;21.83;;;;;;;;;;4462186;32;20295;-56
2021/12/13 11:58:20;;;;;;;43.10;21.00;;;;;;;;;;4460461;32;20220;-56
2021/12/13 12:01:14;;;;;;;32.67;19.57;;;;;;;;;;4448911;32;20263;-56
2021/12/13 12:03:54;;;;;;;27.77;18.10;;;;;;;;;;4446907;32;20330;-55
2021/12/13 12:06:57;;;;;;;42.83;20.33;;;;;;;;;;4447123;32;20208;-55
2021/12/13 12:09:41;;;;;;;20.97;10.93;;;;;;;;;;4452260;32;20295;-55
2021/12/13 12:12:15;;;;;;;19.77;11.17;;;;;;;;;;4463184;32;20247;-55
2021/12/13 12:14:41;;;;;;;12.53;9.30;;;;;;;;;;4450294;32;20228;-55
2021/12/13 12:17:07;;;;;;;11.77;7.83;;;;;;;;;;4447909;32;20250;-56
2021/12/13 12:19:36;;;;;;;15.30;9.43;;;;;;;;;;4447401;32;20296;-56
2021/12/13 12:22:06;;;;;;;17.17;9.83;;;;;;;;;;4449011;32;20208;-55
2021/12/13 12:24:41;;;;;;;42.10;21.47;;;;;;;;;;4448999;32;20298;-56
2021/12/13 12:27:17;;;;;;;38.33;22.53;;;;;;;;;;4449154;32;20654;-55
2021/12/13 12:29:57;;;;;;;24.33;13.30;;;;;;;;;;4448847;32;20652;-55
2021/12/13 12:32:32;;;;;;;30.00;17.10;;;;;;;;;;4448698;32;20232;-55
2021/12/13 12:35:16;;;;;;;29.93;18.37;;;;;;;;;;4456126;32;20231;-56
2021/12/13 12:37:57;;;;;;;27.47;14.80;;;;;;;;;;4464499;32;20196;-56
2021/12/13 12:41:05;;;;;;;26.87;16.03;;;;;;;;;;4462864;32;20757;-56
2021/12/13 12:43:36;;;;;;;28.97;17.50;;;;;;;;;;4463753;32;20290;-55
2021/12/13 12:46:06;;;;;;;19.63;12.73;;;;;;;;;;4464257;32;20214;-56
2021/12/13 12:48:45;;;;;;;12.87;9.23;;;;;;;;;;4463466;32;20451;-56
2021/12/13 12:51:30;;;;;;;4.90;3.97;;;;;;;;;;4463828;32;20200;-56
2021/12/13 12:53:59;;;;;;;3.67;3.33;;;;;;;;;;4463316;32;20689;-55
2021/12/13 12:56:36;;;;;;;4.23;3.67;;;;;;;;;;4463503;32;20251;-56
2021/12/13 12:59:08;;;;;;;5.57;4.00;;;;;;;;;;4464106;32;20690;-56
2021/12/13 13:01:42;;;;;;;6.43;4.57;;;;;;;;;;4463251;32;20254;-56
2021/12/13 13:04:18;;;;;;;6.97;4.37;;;;;;;;;;4463895;32;20228;-55
2021/12/13 13:06:53;;;;;;;16.73;8.77;;;;;;;;;;4451720;32;20319;-55
2021/12/13 13:09:19;;;;;;;20.67;12.80;;;;;;;;;;4448298;32;20215;-56
2021/12/13 13:11:50;;;;;;;9.27;7.00;;;;;;;;;;4446677;32;20419;-56
2021/12/13 13:14:22;;;;;;;12.97;6.50;;;;;;;;;;4447811;32;20228;-56
2021/12/13 13:16:55;;;;;;;18.47;8.70;;;;;;;;;;4447900;32;20317;-55
2021/12/13 13:19:29;;;;;;;53.23;24.67;;;;;;;;;;4446375;32;20227;-55
2021/12/13 13:21:58;;;;;;;60.90;29.67;;;;;;;;;;4448107;32;20213;-57
2021/12/13 13:24:23;;;;;;;53.47;30.43;;;;;;;;;;4447701;32;20266;-56
2021/12/13 13:26:49;;;;;;;61.53;30.13;;;;;;;;;;4447659;32;20200;-56
2021/12/13 13:29:17;;;;;;;56.80;27.23;;;;;;;;;;4448194;32;20228;-56
2021/12/13 13:31:54;;;;;;;46.47;24.67;;;;;;;;;;4447264;32;20318;-56
2021/12/13 13:34:28;;;;;;;45.03;27.07;;;;;;;;;;4451561;32;20223;-56
2021/12/13 13:36:59;;;;;;;33.97;20.20;;;;;;;;;;4463418;32;20628;-56
2021/12/13 13:39:35;;;;;;;43.50;24.87;;;;;;;;;;4463755;32;20250;-56
2021/12/13 13:42:07;;;;;;;38.67;24.47;;;;;;;;;;4462386;32;20216;-57
2021/12/13 13:44:43;;;;;;;52.47;30.63;;;;;;;;;;4463379;32;20940;-58
2021/12/13 13:47:17;;;;;;;43.70;24.00;;;;;;;;;;4463805;32;20269;-57
2021/12/13 13:49:44;;;;;;;50.03;25.53;;;;;;;;;;4463582;32;20390;-57
2021/12/13 13:52:20;;;;;;;59.30;29.33;;;;;;;;;;4463473;32;20197;-57
2021/12/13 13:54:50;;;;;;;45.87;26.23;;;;;;;;;;4463655;32;20239;-56
2021/12/13 13:57:20;;;;;;;33.63;22.90;;;;;;;;;;4463332;32;20197;-56
2021/12/13 13:59:47;;;;;;;44.90;25.23;;;;;;;;;;4462337;32;20687;-56
2021/12/13 14:02:16;;;;;;;42.97;24.73;;;;;;;;;;4456096;32;20651;-56
2021/12/13 14:04:43;;;;;;;60.10;30.53;;;;;;;;;;4448018;32;20260;-56
2021/12/13 14:07:15;;;;;;;58.23;29.10;;;;;;;;;;4447980;32;20291;-59
2021/12/13 14:09:47;;;;;;;54.87;27.90;;;;;;;;;;4447774;32;20297;-56
2021/12/13 14:12:36;;;;;;;55.90;30.23;;;;;;;;;;4447966;32;20673;-57
2021/12/13 14:15:25;;;;;;;63.30;29.77;;;;;;;;;;4446784;32;20755;-62
2021/12/13 14:17:55;;;;;;;52.70;27.97;;;;;;;;;;4446519;32;20285;-56
2021/12/13 14:20:40;;;;;;;65.40;31.97;;;;;;;;;;4448068;32;20599;-57
2021/12/13 14:23:23;;;;;;;53.00;25.77;;;;;;;;;;4448267;32;20224;-58
2021/12/13 14:25:54;;;;;;;48.90;23.50;;;;;;;;;;4447771;32;20652;-57
2021/12/13 14:28:23;;;;;;;60.30;30.23;;;;;;;;;;4447751;32;20867;-57
2021/12/13 14:30:53;;;;;;;42.20;26.87;;;;;;;;;;4447874;32;20658;-57
2021/12/13 14:33:40;;;;;;;42.03;23.60;;;;;;;;;;4451171;32;20377;-56
2021/12/13 14:36:08;;;;;;;48.40;25.90;;;;;;;;;;4450650;32;20227;-57
2021/12/13 14:38:40;;;;;;;31.83;16.77;;;;;;;;;;4450095;32;20273;-56
2021/12/13 14:41:10;;;;;;;38.87;18.23;;;;;;;;;;4450786;32;20208;-58
2021/12/13 14:43:40;;;;;;;29.13;17.77;;;;;;;;;;4450193;32;20233;-57
2021/12/13 14:46:18;;;;;;;21.27;13.07;;;;;;;;;;4450097;32;20234;-56
2021/12/13 14:48:45;;;;;;;26.57;12.73;;;;;;;;;;4450454;32;20522;-56
2021/12/13 14:51:15;;;;;;;13.83;10.53;;;;;;;;;;4450322;32;20201;-57
2021/12/13 14:53:42;;;;;;;16.23;11.10;;;;;;;;;;4450339;32;20265;-57
2021/12/13 14:56:14;;;;;;;22.43;13.23;;;;;;;;;;4448439;32;20244;-57
2021/12/13 14:58:53;;;;;;;18.50;11.47;;;;;;;;;;4449130;32;20308;-57
2021/12/13 15:01:23;;;;;;;19.93;11.10;;;;;;;;;;4449738;32;20224;-57
2021/12/13 15:03:54;;;;;;;22.37;12.90;;;;;;;;;;4449935;32;20427;-56
2021/12/13 15:06:23;;;;;;;25.83;13.70;;;;;;;;;;4449472;32;20197;-57
2021/12/13 15:09:00;;;;;;;30.30;17.60;;;;;;;;;;4450002;32;20610;-57
2021/12/13 15:11:34;;;;;;;28.90;15.37;;;;;;;;;;4449621;32;20208;-56
2021/12/13 15:14:09;;;;;;;24.50;13.23;;;;;;;;;;4449276;32;20237;-57
2021/12/13 15:16:37;;;;;;;24.40;13.83;;;;;;;;;;4449215;32;20204;-57